Time;durP1;ratioP1;P1;durP2;ratioP2;P2;SDS_P1;SDS_P2;PMS_P1;PMS_P2;Temp;Humidity;BMP_temperature;BMP_pressure;BME280_temperature;BME280_humidity;BME280_pressure;Samples;Min_cycle;Max_cycle;Signal;HPM_P1;HPM_P2
2021/12/27 00:00:07;;;;;;;20.50;7.35;;;;;;;;;;6305342;22;20003;-93
2021/12/27 00:02:53;;;;;;;13.80;6.82;;;;;;;;;;6282372;22;20062;-94
2021/12/27 00:05:33;;;;;;;13.18;6.50;;;;;;;;;;6282790;22;20061;-95
2021/12/27 00:08:14;;;;;;;19.38;6.90;;;;;;;;;;6282881;22;20015;-93
2021/12/27 00:10:54;;;;;;;15.07;7.30;;;;;;;;;;6306188;22;20039;-94
2021/12/27 00:13:23;;;;;;;19.85;7.78;;;;;;;;;;6305939;22;20067;-94
2021/12/27 00:16:05;;;;;;;15.07;7.72;;;;;;;;;;6275458;22;20008;-93
2021/12/27 00:18:45;;;;;;;14.65;6.72;;;;;;;;;;6306197;22;20008;-94
2021/12/27 00:21:21;;;;;;;16.58;7.93;;;;;;;;;;6306286;22;20018;-94
2021/12/27 00:24:03;;;;;;;13.93;7.07;;;;;;;;;;6282053;22;20027;-94
2021/12/27 00:26:44;;;;;;;13.73;6.78;;;;;;;;;;6304072;22;20031;-94
2021/12/27 00:29:14;;;;;;;16.00;7.82;;;;;;;;;;6281009;22;20026;-94
2021/12/27 00:31:57;;;;;;;15.93;7.20;;;;;;;;;;6304920;22;20023;-95
2021/12/27 00:34:37;;;;;;;12.27;7.15;;;;;;;;;;6304834;22;20043;-94
2021/12/27 00:37:18;;;;;;;14.65;7.63;;;;;;;;;;6278871;22;20015;-94
2021/12/27 00:39:59;;;;;;;16.67;7.78;;;;;;;;;;6304291;22;20015;-94
2021/12/27 00:42:39;;;;;;;12.35;6.43;;;;;;;;;;6282142;22;20007;-94
2021/12/27 00:45:21;;;;;;;16.67;6.28;;;;;;;;;;6304760;22;20010;-94
2021/12/27 00:48:02;;;;;;;14.80;7.82;;;;;;;;;;6303676;22;20008;-95
2021/12/27 00:50:30;;;;;;;16.35;7.38;;;;;;;;;;6280581;22;20042;-95
2021/12/27 00:53:02;;;;;;;16.63;6.40;;;;;;;;;;6306047;22;20012;-94
2021/12/27 00:55:38;;;;;;;15.27;7.68;;;;;;;;;;6305382;22;20030;-95
2021/12/27 00:58:19;;;;;;;14.50;7.47;;;;;;;;;;6301624;22;20035;-93
2021/12/27 01:00:51;;;;;;;14.93;7.28;;;;;;;;;;6281261;22;20031;-95
2021/12/27 01:03:31;;;;;;;16.98;7.53;;;;;;;;;;6303754;22;20007;-94
2021/12/27 01:06:14;;;;;;;12.82;7.43;;;;;;;;;;6304320;22;20058;-95
2021/12/27 01:08:54;;;;;;;16.38;7.38;;;;;;;;;;6304729;22;20027;-94
2021/12/27 01:14:38;;;;;;;12.45;6.63;;;;;;;;;;6283050;22;20012;-94
2021/12/27 01:17:19;;;;;;;19.67;8.23;;;;;;;;;;6302871;22;20008;-94
2021/12/27 01:19:59;;;;;;;15.77;7.45;;;;;;;;;;6304217;22;20014;-95
2021/12/27 01:22:40;;;;;;;11.93;6.78;;;;;;;;;;6305594;22;20012;-95
2021/12/27 01:25:20;;;;;;;16.80;6.75;;;;;;;;;;6282020;22;20075;-95
2021/12/27 01:28:03;;;;;;;15.40;6.95;;;;;;;;;;6282956;22;20008;-95
2021/12/27 01:30:48;;;;;;;16.23;7.10;;;;;;;;;;6281705;22;20014;-94
2021/12/27 01:33:31;;;;;;;16.50;7.65;;;;;;;;;;6304222;22;20337;-95
2021/12/27 01:36:12;;;;;;;17.60;6.80;;;;;;;;;;6281508;22;20015;-95
2021/12/27 01:38:52;;;;;;;16.48;7.30;;;;;;;;;;6281693;22;20007;-95
2021/12/27 01:41:33;;;;;;;13.40;6.30;;;;;;;;;;6304335;22;20003;-95
2021/12/27 01:44:13;;;;;;;15.65;7.25;;;;;;;;;;6281870;22;20007;-95
2021/12/27 01:46:54;;;;;;;17.27;7.32;;;;;;;;;;6304710;22;20008;-95
2021/12/27 01:49:38;;;;;;;13.93;6.88;;;;;;;;;;6303391;22;20028;-94
2021/12/27 01:52:19;;;;;;;15.15;6.40;;;;;;;;;;6280815;22;20059;-94
2021/12/27 01:54:50;;;;;;;17.95;6.68;;;;;;;;;;6304901;22;20019;-94
2021/12/27 01:57:30;;;;;;;14.75;6.65;;;;;;;;;;6280629;22;20083;-96
2021/12/27 02:00:11;;;;;;;15.80;6.57;;;;;;;;;;6281744;22;20047;-94
2021/12/27 02:02:45;;;;;;;12.73;6.57;;;;;;;;;;6280992;22;20038;-95
2021/12/27 02:05:18;;;;;;;17.00;7.13;;;;;;;;;;6305710;22;20039;-95
2021/12/27 02:07:58;;;;;;;19.55;7.03;;;;;;;;;;6281293;22;20012;-94
2021/12/27 02:10:40;;;;;;;14.05;6.53;;;;;;;;;;6279625;22;20047;-94
2021/12/27 02:13:23;;;;;;;15.13;6.78;;;;;;;;;;6258674;22;20008;-94
2021/12/27 02:16:05;;;;;;;17.48;6.88;;;;;;;;;;6301607;22;20059;-94
2021/12/27 02:18:47;;;;;;;13.80;7.40;;;;;;;;;;6281199;22;20008;-95
2021/12/27 02:21:28;;;;;;;14.70;6.50;;;;;;;;;;6281424;22;20013;-94
2021/12/27 02:24:08;;;;;;;20.95;7.72;;;;;;;;;;6281264;22;20008;-94
2021/12/27 02:26:47;;;;;;;14.30;6.97;;;;;;;;;;6281430;22;20012;-94
2021/12/27 02:29:29;;;;;;;16.00;6.75;;;;;;;;;;6304239;22;20008;-95
2021/12/27 02:32:09;;;;;;;14.98;6.78;;;;;;;;;;6281164;22;20038;-95
2021/12/27 02:34:50;;;;;;;16.10;6.43;;;;;;;;;;6276402;22;20023;-94
2021/12/27 02:37:31;;;;;;;12.13;6.32;;;;;;;;;;6302119;22;20051;-95
2021/12/27 02:40:12;;;;;;;11.05;5.90;;;;;;;;;;6280835;22;20014;-95
2021/12/27 02:42:53;;;;;;;15.45;6.50;;;;;;;;;;6280598;22;20019;-95
2021/12/27 02:45:35;;;;;;;14.82;6.60;;;;;;;;;;6280959;22;20005;-95
2021/12/27 02:48:23;;;;;;;15.27;6.43;;;;;;;;;;6281283;22;20024;-95
2021/12/27 02:51:04;;;;;;;16.25;6.85;;;;;;;;;;6280573;22;20051;-96
2021/12/27 02:53:47;;;;;;;17.58;7.30;;;;;;;;;;6279172;22;20007;-96
2021/12/27 02:56:29;;;;;;;18.02;6.65;;;;;;;;;;6279701;22;20035;-95
2021/12/27 02:59:11;;;;;;;13.30;5.95;;;;;;;;;;6279348;22;20008;-95
2021/12/27 03:01:52;;;;;;;11.77;6.70;;;;;;;;;;6279071;22;20038;-95
2021/12/27 03:04:37;;;;;;;14.50;6.20;;;;;;;;;;6241451;23;20021;-96
2021/12/27 03:07:17;;;;;;;11.88;5.38;;;;;;;;;;6217365;23;20016;-95
2021/12/27 03:09:59;;;;;;;14.57;7.10;;;;;;;;;;6239967;23;20016;-94
2021/12/27 03:12:43;;;;;;;16.15;6.80;;;;;;;;;;6218247;23;20001;-95
2021/12/27 03:15:24;;;;;;;14.48;6.72;;;;;;;;;;6219143;23;20035;-96
2021/12/27 03:18:08;;;;;;;16.02;7.88;;;;;;;;;;6233604;23;20039;-96
2021/12/27 03:20:51;;;;;;;18.20;7.07;;;;;;;;;;6239665;23;20009;-96
2021/12/27 03:23:33;;;;;;;15.20;7.72;;;;;;;;;;6215794;23;20025;-95
2021/12/27 03:26:14;;;;;;;17.60;7.57;;;;;;;;;;6216213;23;20020;-96
2021/12/27 03:29:11;;;;;;;14.93;7.60;;;;;;;;;;6218678;23;20016;-96
2021/12/27 03:31:54;;;;;;;15.95;7.38;;;;;;;;;;6217034;23;20017;-96
2021/12/27 03:34:42;;;;;;;14.55;7.45;;;;;;;;;;6227253;22;20042;-94
2021/12/27 03:37:24;;;;;;;14.98;6.63;;;;;;;;;;6277419;22;20004;-95
2021/12/27 03:40:06;;;;;;;17.30;8.18;;;;;;;;;;6279828;22;20008;-95
2021/12/27 03:42:53;;;;;;;17.45;8.00;;;;;;;;;;6219802;22;20035;-96
2021/12/27 03:45:35;;;;;;;19.27;7.35;;;;;;;;;;6219860;22;20024;-96
2021/12/27 03:48:17;;;;;;;16.58;8.07;;;;;;;;;;6239844;23;20072;-94
2021/12/27 03:50:59;;;;;;;17.75;8.13;;;;;;;;;;6128783;23;20052;-94
2021/12/27 03:53:40;;;;;;;19.98;8.60;;;;;;;;;;6150934;23;20046;-95
2021/12/27 03:56:27;;;;;;;19.83;8.00;;;;;;;;;;6099664;23;20018;-95
2021/12/27 03:59:21;;;;;;;19.85;8.60;;;;;;;;;;6098990;23;20026;-94
2021/12/27 04:02:04;;;;;;;18.83;7.88;;;;;;;;;;6101134;23;20006;-94
2021/12/27 04:04:57;;;;;;;21.02;9.63;;;;;;;;;;6064840;23;20019;-94
2021/12/27 04:07:39;;;;;;;19.10;9.00;;;;;;;;;;6044497;23;20043;-94
2021/12/27 04:10:19;;;;;;;20.85;8.85;;;;;;;;;;6045033;23;20011;-94
2021/12/27 04:13:01;;;;;;;16.13;8.57;;;;;;;;;;6078248;23;20069;-94
2021/12/27 04:15:42;;;;;;;16.40;8.57;;;;;;;;;;6120728;23;20014;-94
2021/12/27 04:18:23;;;;;;;18.98;8.73;;;;;;;;;;6101360;23;20010;-93
2021/12/27 04:21:04;;;;;;;15.77;7.57;;;;;;;;;;6116631;23;20381;-94
2021/12/27 04:23:48;;;;;;;16.10;7.78;;;;;;;;;;6190278;23;20069;-95
2021/12/27 04:26:28;;;;;;;24.77;8.05;;;;;;;;;;6190736;23;20005;-94
2021/12/27 04:29:10;;;;;;;20.67;9.80;;;;;;;;;;6189292;23;20069;-95
2021/12/27 04:31:56;;;;;;;18.35;8.77;;;;;;;;;;6102783;23;20077;-94
2021/12/27 04:34:37;;;;;;;16.73;8.73;;;;;;;;;;6126902;23;20014;-94
2021/12/27 04:37:24;;;;;;;15.95;8.75;;;;;;;;;;6201542;23;20032;-95
2021/12/27 04:40:07;;;;;;;19.30;9.32;;;;;;;;;;6211585;23;20152;-94
2021/12/27 04:42:55;;;;;;;18.90;8.98;;;;;;;;;;6190003;23;20056;-94
2021/12/27 04:45:36;;;;;;;16.55;8.02;;;;;;;;;;6202411;22;20035;-95
2021/12/27 04:48:18;;;;;;;23.02;9.40;;;;;;;;;;6280541;22;20033;-94
2021/12/27 04:50:59;;;;;;;21.58;9.32;;;;;;;;;;6303487;22;20034;-94
2021/12/27 04:53:41;;;;;;;17.38;8.60;;;;;;;;;;6302949;22;20004;-95
2021/12/27 04:56:23;;;;;;;15.60;7.68;;;;;;;;;;6241778;23;20015;-96
2021/12/27 04:59:06;;;;;;;25.73;10.68;;;;;;;;;;6239245;23;20001;-94
2021/12/27 05:01:46;;;;;;;18.25;9.55;;;;;;;;;;6208787;23;20029;-94
2021/12/27 05:04:46;;;;;;;23.75;10.57;;;;;;;;;;6151066;23;20006;-95
2021/12/27 05:07:27;;;;;;;25.88;9.70;;;;;;;;;;6150760;23;20016;-95
2021/12/27 05:10:10;;;;;;;25.92;9.77;;;;;;;;;;6150414;23;20045;-94
2021/12/27 05:19:35;;;;;;;22.67;10.55;;;;;;;;;;6093468;23;20046;-96
2021/12/27 05:22:17;;;;;;;26.67;10.50;;;;;;;;;;6070994;23;20007;-95
2021/12/27 05:24:58;;;;;;;21.95;10.10;;;;;;;;;;6071587;23;20054;-95
2021/12/27 05:27:56;;;;;;;25.25;10.70;;;;;;;;;;6050823;23;20010;-94
2021/12/27 05:30:39;;;;;;;22.23;9.43;;;;;;;;;;6091722;23;20029;-95
2021/12/27 05:33:23;;;;;;;22.23;9.52;;;;;;;;;;6093058;23;20075;-95
2021/12/27 05:36:04;;;;;;;23.15;10.38;;;;;;;;;;6108386;23;20050;-95
2021/12/27 05:38:56;;;;;;;19.50;10.43;;;;;;;;;;6121982;23;20006;-95
2021/12/27 05:41:39;;;;;;;24.05;10.43;;;;;;;;;;6099329;23;20014;-95
2021/12/27 05:44:21;;;;;;;22.08;9.80;;;;;;;;;;6149199;23;20005;-94
2021/12/27 05:47:02;;;;;;;23.85;9.90;;;;;;;;;;6158646;23;20035;-93
2021/12/27 06:00:00;;;;;;;21.85;10.25;;;;;;;;;;6211159;23;20048;-95
2021/12/27 06:02:43;;;;;;;23.27;9.82;;;;;;;;;;6189951;23;20005;-95
2021/12/27 06:05:26;;;;;;;19.50;9.48;;;;;;;;;;6209803;23;20017;-95
2021/12/27 06:08:17;;;;;;;17.23;9.05;;;;;;;;;;6208305;23;20033;-95
2021/12/27 06:10:58;;;;;;;19.58;10.30;;;;;;;;;;6187793;23;20075;-95
2021/12/27 06:16:16;;;;;;;23.50;10.77;;;;;;;;;;6226395;22;20008;-95
2021/12/27 06:24:11;;;;;;;22.83;10.30;;;;;;;;;;6293539;22;20063;-95
2021/12/27 06:26:54;;;;;;;29.20;12.00;;;;;;;;;;6280245;22;20007;-95
2021/12/27 06:29:35;;;;;;;24.35;10.85;;;;;;;;;;6303304;22;20022;-96
2021/12/27 06:32:16;;;;;;;27.42;10.48;;;;;;;;;;6275550;22;20031;-95
2021/12/27 06:34:57;;;;;;;22.65;10.57;;;;;;;;;;6281267;22;20007;-93
2021/12/27 06:37:39;;;;;;;22.10;10.85;;;;;;;;;;6281517;22;20003;-94
2021/12/27 06:40:19;;;;;;;23.17;11.35;;;;;;;;;;6279859;22;20071;-93
2021/12/27 06:42:50;;;;;;;22.88;11.82;;;;;;;;;;6280637;22;20022;-94
2021/12/27 06:45:18;;;;;;;28.70;11.65;;;;;;;;;;6279944;22;20091;-94
2021/12/27 06:47:50;;;;;;;30.45;11.98;;;;;;;;;;6280807;22;20014;-93
2021/12/27 06:50:19;;;;;;;25.05;11.43;;;;;;;;;;6280044;22;20038;-93
2021/12/27 07:05:46;;;;;;;24.05;11.00;;;;;;;;;;6235149;22;20004;-91
2021/12/27 07:08:13;;;;;;;25.00;11.02;;;;;;;;;;6280399;22;20027;-95
2021/12/27 07:10:41;;;;;;;24.88;12.52;;;;;;;;;;6279464;22;20007;-94
2021/12/27 07:13:09;;;;;;;28.92;11.98;;;;;;;;;;6278963;22;20016;-93
2021/12/27 07:15:45;;;;;;;28.60;13.23;;;;;;;;;;6278938;22;20019;-93
2021/12/27 07:18:13;;;;;;;25.10;12.07;;;;;;;;;;6278797;22;20011;-93
2021/12/27 07:20:41;;;;;;;30.10;13.13;;;;;;;;;;6279313;22;20029;-93
2021/12/27 07:23:11;;;;;;;28.80;12.50;;;;;;;;;;6279345;22;20120;-92
2021/12/27 07:25:39;;;;;;;24.40;12.70;;;;;;;;;;6278561;22;20007;-92
2021/12/27 07:28:19;;;;;;;26.25;13.20;;;;;;;;;;6281459;22;20007;-92
2021/12/27 07:30:46;;;;;;;23.30;12.50;;;;;;;;;;6279737;22;20023;-93
2021/12/27 07:33:21;;;;;;;27.38;13.02;;;;;;;;;;6280615;22;20034;-93
2021/12/27 07:36:02;;;;;;;24.67;13.60;;;;;;;;;;6280720;22;20008;-91
2021/12/27 07:38:40;;;;;;;28.48;13.85;;;;;;;;;;6283142;22;20047;-92
2021/12/27 07:41:21;;;;;;;29.98;14.48;;;;;;;;;;6305699;22;20022;-93
2021/12/27 07:43:50;;;;;;;25.65;13.25;;;;;;;;;;6281727;22;20034;-93
2021/12/27 07:46:40;;;;;;;28.13;14.75;;;;;;;;;;6283191;22;20028;-94
2021/12/27 07:49:21;;;;;;;26.55;12.73;;;;;;;;;;6306042;22;20004;-94
2021/12/27 07:52:02;;;;;;;33.40;13.98;;;;;;;;;;6283058;22;20034;-93
2021/12/27 20:50:27;;;;;;;45.37;25.63;;;;;;;;;;6271895;22;20038;-94
2021/12/27 20:52:54;;;;;;;52.13;26.65;;;;;;;;;;6280583;22;20014;-94
2021/12/27 20:55:29;;;;;;;44.13;25.00;;;;;;;;;;6282445;22;20016;-94
2021/12/27 20:58:10;;;;;;;48.72;27.08;;;;;;;;;;6281938;22;20038;-93
2021/12/27 21:00:43;;;;;;;50.22;27.08;;;;;;;;;;6306687;22;20018;-94
2021/12/27 21:03:23;;;;;;;44.63;25.15;;;;;;;;;;6282804;22;20026;-93
2021/12/27 21:05:52;;;;;;;45.15;24.67;;;;;;;;;;6280582;22;20019;-94
2021/12/27 21:08:21;;;;;;;47.17;27.10;;;;;;;;;;6280732;22;20042;-94
2021/12/27 21:10:52;;;;;;;49.50;26.13;;;;;;;;;;6281441;22;20011;-95
2021/12/27 21:13:33;;;;;;;50.08;26.95;;;;;;;;;;6282862;22;20019;-95
2021/12/27 21:16:15;;;;;;;45.20;26.65;;;;;;;;;;6283213;22;20031;-94
2021/12/27 21:18:50;;;;;;;46.97;27.15;;;;;;;;;;6281884;22;20039;-94
2021/12/27 21:21:17;;;;;;;49.47;25.55;;;;;;;;;;6280533;22;20026;-94
2021/12/27 21:23:58;;;;;;;46.78;25.33;;;;;;;;;;6283010;22;20010;-94
2021/12/27 21:26:26;;;;;;;46.35;26.38;;;;;;;;;;6280807;22;20038;-91
2021/12/27 21:28:57;;;;;;;44.65;26.20;;;;;;;;;;6281053;22;20030;-94
2021/12/27 21:31:24;;;;;;;47.50;26.00;;;;;;;;;;6280394;22;20034;-94
2021/12/27 21:33:52;;;;;;;45.58;26.25;;;;;;;;;;6280343;22;20019;-95
2021/12/27 21:36:26;;;;;;;41.45;23.90;;;;;;;;;;6282009;22;20020;-94
2021/12/27 21:39:07;;;;;;;42.70;24.55;;;;;;;;;;6281963;22;20011;-93
2021/12/27 21:41:47;;;;;;;44.53;24.23;;;;;;;;;;6280603;22;20007;-93
2021/12/27 21:44:29;;;;;;;40.80;23.27;;;;;;;;;;6279631;22;20019;-94
2021/12/27 21:47:01;;;;;;;44.25;23.67;;;;;;;;;;6281343;22;20076;-95
2021/12/27 21:49:41;;;;;;;39.58;22.83;;;;;;;;;;6282019;22;20018;-94
2021/12/27 21:52:10;;;;;;;45.97;24.77;;;;;;;;;;6280537;22;20023;-94
2021/12/27 21:54:51;;;;;;;47.33;25.10;;;;;;;;;;6279824;22;20035;-93
2021/12/27 21:57:22;;;;;;;42.85;24.23;;;;;;;;;;6281101;22;20007;-91
2021/12/27 21:59:50;;;;;;;42.17;23.50;;;;;;;;;;6280315;22;20034;-96
2021/12/27 22:02:21;;;;;;;41.63;23.02;;;;;;;;;;6280958;22;20019;-95
2021/12/27 22:04:52;;;;;;;41.97;22.95;;;;;;;;;;6280836;22;20058;-96
2021/12/27 22:07:23;;;;;;;44.75;23.73;;;;;;;;;;6280743;22;20063;-95
2021/12/27 22:10:07;;;;;;;48.20;26.13;;;;;;;;;;6282841;22;20012;-95
2021/12/27 22:12:47;;;;;;;44.30;24.85;;;;;;;;;;6281819;22;20004;-94
2021/12/27 22:15:18;;;;;;;44.20;23.83;;;;;;;;;;6280725;22;20041;-94
2021/12/27 22:17:59;;;;;;;43.78;21.80;;;;;;;;;;6281936;22;20007;-94
2021/12/27 22:20:39;;;;;;;37.53;23.15;;;;;;;;;;6281439;22;20034;-93
2021/12/27 22:23:07;;;;;;;39.50;22.23;;;;;;;;;;6280170;22;20058;-93
2021/12/27 22:25:48;;;;;;;40.65;24.02;;;;;;;;;;6281549;22;20022;-93
2021/12/27 22:28:15;;;;;;;44.63;25.13;;;;;;;;;;6279946;22;20035;-94
2021/12/27 22:30:43;;;;;;;42.15;24.23;;;;;;;;;;6280137;22;20008;-93
2021/12/27 22:33:15;;;;;;;38.40;22.00;;;;;;;;;;6280644;22;20011;-92
2021/12/27 22:35:44;;;;;;;43.15;22.80;;;;;;;;;;6280054;22;20011;-94
2021/12/27 22:38:11;;;;;;;43.28;23.58;;;;;;;;;;6279967;22;20054;-96
2021/12/27 22:45:58;;;;;;;42.42;23.50;;;;;;;;;;6305958;22;20393;-94
2021/12/27 22:48:28;;;;;;;42.72;24.10;;;;;;;;;;6280268;22;20019;-92
2021/12/27 22:50:57;;;;;;;43.33;24.42;;;;;;;;;;6280103;22;20015;-92
2021/12/27 22:53:25;;;;;;;43.13;23.65;;;;;;;;;;6279760;22;20008;-93
2021/12/27 22:56:02;;;;;;;42.50;22.45;;;;;;;;;;6281631;22;20075;-93
2021/12/27 22:58:30;;;;;;;44.22;22.88;;;;;;;;;;6279469;22;20031;-93
2021/12/27 23:00:57;;;;;;;44.97;23.27;;;;;;;;;;6279545;22;20070;-92
2021/12/27 23:03:38;;;;;;;41.03;22.20;;;;;;;;;;6281395;22;20015;-93
2021/12/27 23:06:14;;;;;;;40.27;23.07;;;;;;;;;;6282621;22;20032;-92
2021/12/27 23:08:48;;;;;;;;;;;;;;;;;;6283882;22;20433;-94
2021/12/27 23:11:17;;;;;;;42.20;23.83;;;;;;;;;;6282073;22;19922;-92
2021/12/27 23:13:45;;;;;;;42.40;23.75;;;;;;;;;;6281385;22;20008;-93
2021/12/27 23:16:14;;;;;;;40.28;23.30;;;;;;;;;;6282122;22;20034;-91
2021/12/27 23:18:41;;;;;;;43.92;23.05;;;;;;;;;;6281830;22;20010;-93
2021/12/27 23:21:22;;;;;;;43.13;24.80;;;;;;;;;;6284360;22;20035;-93
2021/12/27 23:24:05;;;;;;;40.10;22.45;;;;;;;;;;6283138;22;20010;-93
2021/12/27 23:26:33;;;;;;;42.20;24.55;;;;;;;;;;6281742;22;20069;-93
2021/12/27 23:29:08;;;;;;;43.83;22.65;;;;;;;;;;6283293;22;20012;-93
2021/12/27 23:31:37;;;;;;;38.85;22.75;;;;;;;;;;6281842;22;20034;-93
2021/12/27 23:34:09;;;;;;;42.08;22.77;;;;;;;;;;6282180;22;20035;-91
2021/12/27 23:36:41;;;;;;;36.60;22.38;;;;;;;;;;6281925;22;20059;-93
2021/12/27 23:39:10;;;;;;;44.38;23.05;;;;;;;;;;6281468;22;20059;-93
2021/12/27 23:41:43;;;;;;;41.33;22.35;;;;;;;;;;6282356;22;20030;-94
2021/12/27 23:44:11;;;;;;;42.75;22.42;;;;;;;;;;6281332;22;20042;-93
2021/12/27 23:46:40;;;;;;;38.03;21.75;;;;;;;;;;6281901;22;20059;-93
2021/12/27 23:49:08;;;;;;;38.10;20.67;;;;;;;;;;6281458;22;20038;-94
2021/12/27 23:51:35;;;;;;;36.30;21.25;;;;;;;;;;6281398;22;20035;-93
2021/12/27 23:54:04;;;;;;;35.72;21.17;;;;;;;;;;6281375;22;20012;-93
2021/12/27 23:56:31;;;;;;;39.65;22.13;;;;;;;;;;6281213;22;20008;-92
2021/12/27 23:58:59;;;;;;;42.13;21.10;;;;;;;;;;6281130;22;20033;-93
